createdAt,value
2022-08-11T00:04:23.708Z,1.80
2022-08-11T00:09:24.196Z,1.98
2022-08-11T00:14:37.386Z,1.75
2022-08-11T00:20:11.711Z,1.63
2022-08-11T00:25:01.581Z,1.77
2022-08-11T00:29:59.012Z,1.63
2022-08-11T00:35:55.613Z,1.77
2022-08-11T00:40:32.548Z,2.08
2022-08-11T00:46:09.114Z,1.70
2022-08-11T00:51:57.600Z,1.45
2022-08-11T00:57:37.655Z,2.50
2022-08-11T01:03:07.065Z,1.40
2022-08-11T01:08:24.359Z,1.50
2022-08-11T01:13:58.804Z,1.52
2022-08-11T01:20:45.021Z,1.40
2022-08-11T01:25:21.782Z,1.52
2022-08-11T01:30:59.969Z,1.88
2022-08-11T01:35:59.479Z,2.78
2022-08-11T01:41:01.664Z,1.63
2022-08-11T01:46:10.874Z,1.80
2022-08-11T01:51:34.781Z,1.77
2022-08-11T01:56:49.545Z,2.00
2022-08-11T02:02:10.715Z,2.08
2022-08-11T02:07:28.703Z,1.63
2022-08-11T02:12:27.613Z,2.22
2022-08-11T02:17:57.780Z,1.75
2022-08-11T02:23:59.615Z,1.95
2022-08-11T02:29:18.711Z,1.85
2022-08-11T02:34:59.290Z,1.80
2022-08-11T02:39:59.486Z,1.83
2022-08-11T02:45:14.446Z,1.58
2022-08-11T02:50:26.514Z,1.88
2022-08-11T02:55:48.673Z,1.77
2022-08-11T03:01:06.492Z,1.67
2022-08-11T03:06:05.964Z,1.85
2022-08-11T03:11:50.231Z,1.90
2022-08-11T03:17:00.399Z,2.13
2022-08-11T03:22:17.079Z,1.52
2022-08-11T03:27:32.065Z,1.50
2022-08-11T03:32:37.604Z,1.88
2022-08-11T03:37:56.875Z,2.17
2022-08-11T03:43:03.565Z,2.45
2022-08-11T03:48:41.216Z,2.03
2022-08-11T03:59:31.046Z,2.33
2022-08-11T04:05:12.598Z,2.47
2022-08-11T04:10:15.218Z,2.25
2022-08-11T04:16:00.712Z,2.65
2022-08-11T04:21:29.216Z,2.33
2022-08-11T04:26:56.521Z,2.20
2022-08-11T04:32:36.893Z,2.40
2022-08-11T04:38:16.315Z,2.70
2022-08-11T04:44:02.618Z,2.65
2022-08-11T04:49:34.181Z,2.70
2022-08-11T04:55:04.288Z,2.40
2022-08-11T05:00:31.282Z,2.08
2022-08-11T05:05:56.303Z,2.20
2022-08-11T05:11:07.657Z,2.20
2022-08-11T05:16:30.447Z,1.88
2022-08-11T05:21:45.878Z,2.08
2022-08-11T05:27:12.806Z,2.38
2022-08-11T05:32:31.880Z,2.50
2022-08-11T05:37:34.425Z,2.60
2022-08-11T05:42:52.381Z,2.35
2022-08-11T05:48:08.397Z,2.53
2022-08-11T05:53:29.540Z,2.17
2022-08-11T05:58:42.566Z,2.80
2022-08-11T06:04:04.704Z,3.42
2022-08-11T06:09:02.206Z,2.95
2022-08-11T06:14:02.315Z,3.00
2022-08-11T06:19:00.217Z,2.03
2022-08-11T06:23:57.078Z,2.10
2022-08-11T06:28:59.297Z,2.30
2022-08-11T06:34:11.387Z,2.00
2022-08-11T06:44:55.300Z,1.75
2022-08-11T06:50:10.324Z,1.52
2022-08-11T06:55:56.112Z,1.48
2022-08-11T07:00:33.464Z,1.42
2022-08-11T07:05:53.869Z,1.27
2022-08-11T07:11:50.804Z,1.58
2022-08-11T07:16:49.351Z,1.63
2022-08-11T07:22:05.998Z,1.92
2022-08-11T07:27:24.709Z,2.05
2022-08-11T07:32:33.110Z,1.42
2022-08-11T07:37:33.367Z,1.30
2022-08-11T07:42:37.328Z,1.38
2022-08-11T07:47:55.075Z,1.30
2022-08-11T07:52:54.011Z,1.55
2022-08-11T07:58:15.348Z,1.80
2022-08-11T08:03:32.763Z,1.63
2022-08-11T08:08:48.429Z,1.95
2022-08-11T08:14:04.396Z,1.48
2022-08-11T08:19:00.933Z,1.57
2022-08-11T08:23:58.628Z,1.25
2022-08-11T08:29:16.503Z,1.50
2022-08-11T08:34:13.592Z,1.40
2022-08-11T08:39:13.054Z,1.50
2022-08-11T08:44:37.203Z,1.45
2022-08-11T08:49:40.385Z,1.23
2022-08-11T08:54:39.639Z,1.60
2022-08-11T08:59:48.766Z,1.60
2022-08-11T09:04:47.413Z,1.77
2022-08-11T09:09:53.562Z,1.52
2022-08-11T09:15:06.322Z,1.38
2022-08-11T09:20:08.330Z,1.70
2022-08-11T09:25:25.757Z,1.48
2022-08-11T09:30:27.614Z,1.40
2022-08-11T09:35:27.675Z,1.85
2022-08-11T09:40:31.496Z,1.40
2022-08-11T09:45:29.373Z,1.40
2022-08-11T09:50:39.316Z,1.38
2022-08-11T09:55:38.215Z,1.40
2022-08-11T10:00:40.336Z,1.52
2022-08-11T10:05:56.935Z,1.27
2022-08-11T10:10:55.416Z,1.50
2022-08-11T10:16:14.592Z,1.42
2022-08-11T10:21:25.221Z,1.27
2022-08-11T10:26:42.878Z,1.60
2022-08-11T10:32:02.910Z,1.60
2022-08-11T10:37:04.144Z,1.42
2022-08-11T10:42:30.210Z,2.42
2022-08-11T10:58:07.244Z,1.63
2022-08-11T11:03:23.553Z,1.33
2022-08-11T11:14:09.988Z,1.80
2022-08-11T11:19:10.039Z,2.15
2022-08-11T11:24:37.407Z,1.30
2022-08-11T11:29:54.577Z,1.52
2022-08-11T11:35:10.956Z,1.52
2022-08-11T11:40:13.232Z,1.52
2022-08-11T11:45:14.960Z,1.27
2022-08-11T11:50:35.633Z,1.30
2022-08-11T11:55:33.418Z,1.42
2022-08-11T12:00:49.310Z,1.58
2022-08-11T12:05:45.987Z,1.35
2022-08-11T12:11:13.186Z,1.90
2022-08-11T12:16:34.409Z,1.60
2022-08-11T12:21:29.550Z,1.98
2022-08-11T12:26:44.957Z,1.30
2022-08-11T12:32:01.924Z,1.35
2022-08-11T12:37:05.624Z,1.50
2022-08-11T12:42:21.009Z,1.52
2022-08-11T12:47:20.029Z,1.48
2022-08-11T12:52:26.411Z,2.05
2022-08-11T12:58:10.540Z,1.50
2022-08-11T13:03:27.722Z,1.50
2022-08-11T13:08:26.577Z,1.40
2022-08-11T13:13:54.868Z,1.27
2022-08-11T13:18:42.870Z,1.50
2022-08-11T13:23:40.397Z,1.70
2022-08-11T13:28:56.656Z,1.60
2022-08-11T13:33:54.075Z,1.48
2022-08-11T13:38:51.198Z,1.40
2022-08-11T13:43:47.659Z,1.20
2022-08-11T13:48:44.703Z,1.45
2022-08-11T13:53:43.614Z,1.35
2022-08-11T13:58:41.133Z,1.13
2022-08-11T14:04:30.018Z,1.42
2022-08-11T14:08:59.281Z,1.45
2022-08-11T14:13:58.446Z,1.08
2022-08-11T14:19:00.157Z,1.25
2022-08-11T14:23:59.347Z,1.30
2022-08-11T14:29:02.784Z,1.02
2022-08-11T14:34:02.915Z,1.38
2022-08-11T14:39:03.229Z,1.08
2022-08-11T14:44:18.513Z,1.33
2022-08-11T14:49:15.411Z,1.35
2022-08-11T14:54:31.398Z,1.45
2022-08-11T14:59:27.841Z,1.77
2022-08-11T15:04:35.759Z,1.02
2022-08-11T15:09:36.233Z,1.50
2022-08-11T15:14:55.820Z,1.30
2022-08-11T15:20:12.093Z,1.30
2022-08-11T15:30:33.381Z,1.33
2022-08-11T15:35:50.925Z,1.33
2022-08-11T15:41:07.624Z,1.10
2022-08-11T15:46:18.015Z,1.13
2022-08-11T15:51:25.150Z,1.38
2022-08-11T15:56:25.763Z,1.10
2022-08-11T16:01:42.936Z,1.35
2022-08-11T16:06:57.528Z,1.40
2022-08-11T16:11:56.757Z,1.20
2022-08-11T16:16:54.172Z,1.42
2022-08-11T16:21:53.018Z,1.40
2022-08-11T16:27:10.440Z,1.20
2022-08-11T16:32:16.939Z,1.20
2022-08-11T16:37:33.985Z,1.30
2022-08-11T16:43:02.422Z,1.45
2022-08-11T16:48:33.070Z,1.67
2022-08-11T16:53:50.144Z,1.20
2022-08-11T16:59:00.930Z,1.35
2022-08-11T17:04:31.216Z,1.13
2022-08-11T17:09:50.967Z,1.50
2022-08-11T17:14:55.076Z,1.73
2022-08-11T17:20:40.683Z,1.40
2022-08-11T17:25:12.998Z,1.67
2022-08-11T17:30:10.980Z,1.58
2022-08-11T17:35:30.840Z,1.27
2022-08-11T17:40:28.312Z,1.35
2022-08-11T17:45:44.073Z,1.50
2022-08-11T17:50:41.317Z,1.60
2022-08-11T17:55:58.495Z,1.58
2022-08-11T18:00:56.063Z,1.67
2022-08-11T18:05:52.571Z,1.63
2022-08-11T18:11:08.720Z,1.70
2022-08-11T18:16:24.040Z,1.60
2022-08-11T18:21:39.693Z,1.40
2022-08-11T18:32:12.437Z,1.10
2022-08-11T18:37:41.890Z,1.67
2022-08-11T18:43:00.609Z,1.58
2022-08-11T18:48:21.063Z,1.60
2022-08-11T18:53:37.354Z,1.45
2022-08-11T18:58:55.537Z,1.17
2022-08-11T19:04:17.473Z,1.60
2022-08-11T19:09:36.881Z,1.50
2022-08-11T19:14:54.048Z,1.52
2022-08-11T19:20:10.155Z,1.50
2022-08-11T19:25:27.296Z,1.47
2022-08-11T19:30:43.153Z,1.45
2022-08-11T19:36:00.388Z,2.00
2022-08-11T19:41:51.833Z,1.63
2022-08-11T19:46:56.622Z,2.17
2022-08-11T19:52:12.601Z,1.80
2022-08-11T19:57:28.947Z,1.88
2022-08-11T20:02:44.274Z,2.07
2022-08-11T20:08:01.323Z,3.38
2022-08-11T20:18:37.712Z,3.28
2022-08-11T20:23:53.028Z,1.90
2022-08-11T20:29:10.333Z,2.90
2022-08-11T20:34:27.446Z,2.70
2022-08-11T20:39:44.006Z,2.53
2022-08-11T20:45:00.933Z,2.42
2022-08-11T20:50:20.371Z,2.47
2022-08-11T20:55:46.272Z,2.60
2022-08-11T21:01:10.523Z,2.47
2022-08-11T21:06:36.585Z,2.10
2022-08-11T21:11:54.603Z,1.98
2022-08-11T21:17:27.106Z,2.13
2022-08-11T21:22:59.366Z,2.40
2022-08-11T21:28:25.236Z,1.80
2022-08-11T21:33:40.383Z,2.10
2022-08-11T21:38:56.265Z,2.20
2022-08-11T21:44:12.835Z,2.03
2022-08-11T21:49:30.025Z,2.40
2022-08-11T21:54:46.312Z,2.20
2022-08-11T22:00:11.385Z,2.25
2022-08-11T22:05:28.496Z,2.75
2022-08-11T22:10:43.548Z,2.22
2022-08-11T22:15:58.798Z,1.95
2022-08-11T22:21:14.229Z,2.33
2022-08-11T22:26:53.259Z,2.50
2022-08-11T22:32:09.369Z,2.33
2022-08-11T22:37:27.523Z,2.33
2022-08-11T22:42:43.138Z,2.25
2022-08-11T22:48:02.574Z,2.38
2022-08-11T22:53:19.899Z,2.30
2022-08-11T22:58:36.651Z,2.13
2022-08-11T23:03:52.459Z,1.80
2022-08-11T23:09:08.117Z,2.28
2022-08-11T23:14:23.628Z,2.10
2022-08-11T23:20:10.469Z,2.00
2022-08-11T23:25:17.744Z,2.05
2022-08-11T23:30:33.292Z,2.15
2022-08-11T23:35:55.526Z,1.90
2022-08-11T23:41:13.661Z,2.00
2022-08-11T23:46:29.180Z,1.80
2022-08-11T23:51:45.768Z,1.90
2022-08-11T23:57:01.294Z,1.98
